sensor_id;sensor_type;location;lat;lon;timestamp;P1;durP1;ratioP1;P2;durP2;ratioP2
30505;SDS011;17292;51.600;4.994;2023-05-24T00:01:49;11.82;;;5.45;;
30505;SDS011;17292;51.600;4.994;2023-05-24T00:04:16;10.80;;;5.18;;
30505;SDS011;17292;51.600;4.994;2023-05-24T00:06:43;10.60;;;5.60;;
30505;SDS011;17292;51.600;4.994;2023-05-24T00:09:10;11.05;;;5.30;;
30505;SDS011;17292;51.600;4.994;2023-05-24T00:11:36;10.52;;;5.70;;
30505;SDS011;17292;51.600;4.994;2023-05-24T00:14:03;8.80;;;5.30;;
30505;SDS011;17292;51.600;4.994;2023-05-24T00:16:29;9.77;;;5.00;;
30505;SDS011;17292;51.600;4.994;2023-05-24T00:18:55;8.63;;;5.07;;
30505;SDS011;17292;51.600;4.994;2023-05-24T00:21:22;11.07;;;5.50;;
30505;SDS011;17292;51.600;4.994;2023-05-24T00:23:48;9.40;;;5.22;;
30505;SDS011;17292;51.600;4.994;2023-05-24T00:26:16;9.70;;;5.10;;
30505;SDS011;17292;51.600;4.994;2023-05-24T00:28:42;13.35;;;5.50;;
30505;SDS011;17292;51.600;4.994;2023-05-24T00:31:09;8.93;;;5.28;;
30505;SDS011;17292;51.600;4.994;2023-05-24T00:33:36;8.40;;;5.43;;
30505;SDS011;17292;51.600;4.994;2023-05-24T00:36:02;9.63;;;5.07;;
30505;SDS011;17292;51.600;4.994;2023-05-24T00:38:28;10.75;;;4.95;;
30505;SDS011;17292;51.600;4.994;2023-05-24T00:40:54;9.82;;;5.30;;
30505;SDS011;17292;51.600;4.994;2023-05-24T00:43:20;9.35;;;5.25;;
30505;SDS011;17292;51.600;4.994;2023-05-24T00:45:47;6.72;;;4.38;;
30505;SDS011;17292;51.600;4.994;2023-05-24T00:48:13;8.85;;;5.18;;
30505;SDS011;17292;51.600;4.994;2023-05-24T00:50:39;9.32;;;4.90;;
30505;SDS011;17292;51.600;4.994;2023-05-24T00:53:06;7.38;;;4.93;;
30505;SDS011;17292;51.600;4.994;2023-05-24T00:55:35;11.10;;;5.32;;
30505;SDS011;17292;51.600;4.994;2023-05-24T00:58:01;11.50;;;5.20;;
30505;SDS011;17292;51.600;4.994;2023-05-24T01:00:28;11.05;;;5.43;;
30505;SDS011;17292;51.600;4.994;2023-05-24T01:02:54;8.77;;;4.70;;
30505;SDS011;17292;51.600;4.994;2023-05-24T01:05:21;10.00;;;4.85;;
30505;SDS011;17292;51.600;4.994;2023-05-24T01:18:23;10.75;;;5.68;;
30505;SDS011;17292;51.600;4.994;2023-05-24T01:20:32;9.10;;;4.93;;
30505;SDS011;17292;51.600;4.994;2023-05-24T01:23:24;11.25;;;5.10;;
30505;SDS011;17292;51.600;4.994;2023-05-24T01:28:32;10.57;;;5.18;;
30505;SDS011;17292;51.600;4.994;2023-05-24T01:30:59;7.68;;;5.05;;
30505;SDS011;17292;51.600;4.994;2023-05-24T01:33:25;9.05;;;4.88;;
30505;SDS011;17292;51.600;4.994;2023-05-24T01:35:51;8.93;;;5.05;;
30505;SDS011;17292;51.600;4.994;2023-05-24T01:38:17;8.00;;;4.88;;
30505;SDS011;17292;51.600;4.994;2023-05-24T01:40:44;9.18;;;5.18;;
30505;SDS011;17292;51.600;4.994;2023-05-24T01:43:13;13.18;;;5.00;;
30505;SDS011;17292;51.600;4.994;2023-05-24T01:48:18;7.60;;;4.50;;
30505;SDS011;17292;51.600;4.994;2023-05-24T01:50:48;9.30;;;5.25;;
30505;SDS011;17292;51.600;4.994;2023-05-24T01:53:17;10.40;;;5.35;;
30505;SDS011;17292;51.600;4.994;2023-05-24T01:55:44;9.98;;;5.03;;
30505;SDS011;17292;51.600;4.994;2023-05-24T01:58:12;8.30;;;5.22;;
30505;SDS011;17292;51.600;4.994;2023-05-24T02:00:41;10.00;;;4.68;;
30505;SDS011;17292;51.600;4.994;2023-05-24T02:03:08;8.30;;;5.07;;
30505;SDS011;17292;51.600;4.994;2023-05-24T02:05:34;9.93;;;5.03;;
30505;SDS011;17292;51.600;4.994;2023-05-24T02:08:01;9.48;;;4.95;;
30505;SDS011;17292;51.600;4.994;2023-05-24T02:10:27;7.28;;;4.90;;
30505;SDS011;17292;51.600;4.994;2023-05-24T02:12:53;10.15;;;4.93;;
30505;SDS011;17292;51.600;4.994;2023-05-24T02:15:19;9.10;;;5.20;;
30505;SDS011;17292;51.600;4.994;2023-05-24T02:17:46;5.80;;;4.10;;
30505;SDS011;17292;51.600;4.994;2023-05-24T02:20:12;9.73;;;5.40;;
30505;SDS011;17292;51.600;4.994;2023-05-24T02:22:38;9.82;;;5.35;;
30505;SDS011;17292;51.600;4.994;2023-05-24T02:25:05;10.38;;;4.80;;
30505;SDS011;17292;51.600;4.994;2023-05-24T02:27:32;6.30;;;4.60;;
30505;SDS011;17292;51.600;4.994;2023-05-24T02:29:58;6.88;;;4.60;;
30505;SDS011;17292;51.600;4.994;2023-05-24T02:32:24;8.65;;;4.80;;
30505;SDS011;17292;51.600;4.994;2023-05-24T02:34:50;7.38;;;4.30;;
30505;SDS011;17292;51.600;4.994;2023-05-24T02:37:16;8.15;;;5.05;;
30505;SDS011;17292;51.600;4.994;2023-05-24T02:39:42;7.85;;;5.07;;
30505;SDS011;17292;51.600;4.994;2023-05-24T02:42:08;7.32;;;4.13;;
30505;SDS011;17292;51.600;4.994;2023-05-24T02:44:35;9.07;;;4.20;;
30505;SDS011;17292;51.600;4.994;2023-05-24T02:47:01;7.82;;;4.43;;
30505;SDS011;17292;51.600;4.994;2023-05-24T02:49:27;8.40;;;4.57;;
30505;SDS011;17292;51.600;4.994;2023-05-24T02:51:53;8.05;;;4.50;;
30505;SDS011;17292;51.600;4.994;2023-05-24T02:54:20;10.23;;;5.32;;
30505;SDS011;17292;51.600;4.994;2023-05-24T02:56:46;7.07;;;4.53;;
30505;SDS011;17292;51.600;4.994;2023-05-24T02:59:12;7.88;;;4.50;;
30505;SDS011;17292;51.600;4.994;2023-05-24T03:01:38;6.15;;;4.00;;
30505;SDS011;17292;51.600;4.994;2023-05-24T03:04:05;8.00;;;4.93;;
30505;SDS011;17292;51.600;4.994;2023-05-24T03:06:31;9.30;;;4.45;;
30505;SDS011;17292;51.600;4.994;2023-05-24T03:08:57;10.18;;;4.63;;
30505;SDS011;17292;51.600;4.994;2023-05-24T03:11:23;6.90;;;4.57;;
30505;SDS011;17292;51.600;4.994;2023-05-24T03:13:50;8.80;;;4.45;;
30505;SDS011;17292;51.600;4.994;2023-05-24T03:16:16;7.53;;;4.53;;
30505;SDS011;17292;51.600;4.994;2023-05-24T03:18:43;10.13;;;5.18;;
30505;SDS011;17292;51.600;4.994;2023-05-24T03:21:09;8.13;;;4.95;;
30505;SDS011;17292;51.600;4.994;2023-05-24T03:23:36;7.57;;;4.35;;
30505;SDS011;17292;51.600;4.994;2023-05-24T03:26:02;7.68;;;4.30;;
30505;SDS011;17292;51.600;4.994;2023-05-24T03:28:28;6.97;;;4.30;;
30505;SDS011;17292;51.600;4.994;2023-05-24T03:30:54;6.70;;;4.13;;
30505;SDS011;17292;51.600;4.994;2023-05-24T03:33:20;6.13;;;4.03;;
30505;SDS011;17292;51.600;4.994;2023-05-24T03:35:47;8.20;;;4.60;;
30505;SDS011;17292;51.600;4.994;2023-05-24T03:38:13;6.28;;;4.07;;
30505;SDS011;17292;51.600;4.994;2023-05-24T03:40:39;9.70;;;4.40;;
30505;SDS011;17292;51.600;4.994;2023-05-24T03:43:05;7.22;;;4.93;;
30505;SDS011;17292;51.600;4.994;2023-05-24T03:45:31;6.93;;;3.95;;
30505;SDS011;17292;51.600;4.994;2023-05-24T03:47:57;8.30;;;4.32;;
30505;SDS011;17292;51.600;4.994;2023-05-24T03:50:23;6.93;;;4.15;;
30505;SDS011;17292;51.600;4.994;2023-05-24T03:52:49;5.38;;;3.67;;
30505;SDS011;17292;51.600;4.994;2023-05-24T03:55:17;6.20;;;4.05;;
30505;SDS011;17292;51.600;4.994;2023-05-24T03:57:43;6.88;;;4.18;;
30505;SDS011;17292;51.600;4.994;2023-05-24T04:00:09;8.40;;;4.45;;
30505;SDS011;17292;51.600;4.994;2023-05-24T04:02:36;5.93;;;4.20;;
30505;SDS011;17292;51.600;4.994;2023-05-24T04:05:03;7.05;;;3.88;;
30505;SDS011;17292;51.600;4.994;2023-05-24T04:07:30;5.20;;;4.05;;
30505;SDS011;17292;51.600;4.994;2023-05-24T04:09:58;5.97;;;4.10;;
30505;SDS011;17292;51.600;4.994;2023-05-24T04:12:24;6.50;;;3.97;;
30505;SDS011;17292;51.600;4.994;2023-05-24T04:14:50;6.80;;;4.10;;
30505;SDS011;17292;51.600;4.994;2023-05-24T04:17:16;8.40;;;4.30;;
30505;SDS011;17292;51.600;4.994;2023-05-24T04:19:42;7.07;;;4.28;;
30505;SDS011;17292;51.600;4.994;2023-05-24T04:22:10;7.47;;;4.03;;
30505;SDS011;17292;51.600;4.994;2023-05-24T04:24:37;6.13;;;3.95;;
30505;SDS011;17292;51.600;4.994;2023-05-24T04:27:03;9.65;;;4.55;;
30505;SDS011;17292;51.600;4.994;2023-05-24T04:29:29;6.93;;;4.07;;
30505;SDS011;17292;51.600;4.994;2023-05-24T04:31:57;6.20;;;4.10;;
30505;SDS011;17292;51.600;4.994;2023-05-24T04:34:24;6.35;;;4.53;;
30505;SDS011;17292;51.600;4.994;2023-05-24T04:36:53;5.22;;;3.72;;
30505;SDS011;17292;51.600;4.994;2023-05-24T04:39:20;7.32;;;4.10;;
30505;SDS011;17292;51.600;4.994;2023-05-24T04:41:46;5.88;;;4.07;;
30505;SDS011;17292;51.600;4.994;2023-05-24T04:44:15;8.18;;;4.47;;
30505;SDS011;17292;51.600;4.994;2023-05-24T04:46:41;6.70;;;4.25;;
30505;SDS011;17292;51.600;4.994;2023-05-24T04:49:07;7.85;;;4.43;;
30505;SDS011;17292;51.600;4.994;2023-05-24T04:51:33;7.55;;;4.07;;
30505;SDS011;17292;51.600;4.994;2023-05-24T04:54:03;7.60;;;4.43;;
30505;SDS011;17292;51.600;4.994;2023-05-24T04:56:35;9.15;;;4.03;;
30505;SDS011;17292;51.600;4.994;2023-05-24T04:59:05;10.80;;;4.20;;
30505;SDS011;17292;51.600;4.994;2023-05-24T05:01:31;7.95;;;4.03;;
30505;SDS011;17292;51.600;4.994;2023-05-24T05:03:58;6.38;;;3.90;;
30505;SDS011;17292;51.600;4.994;2023-05-24T05:06:24;8.23;;;4.40;;
30505;SDS011;17292;51.600;4.994;2023-05-24T05:08:51;7.35;;;3.95;;
30505;SDS011;17292;51.600;4.994;2023-05-24T05:11:18;8.10;;;3.83;;
30505;SDS011;17292;51.600;4.994;2023-05-24T05:13:44;8.13;;;4.10;;
30505;SDS011;17292;51.600;4.994;2023-05-24T05:16:11;7.55;;;3.90;;
30505;SDS011;17292;51.600;4.994;2023-05-24T05:18:37;8.15;;;3.75;;
30505;SDS011;17292;51.600;4.994;2023-05-24T05:21:03;6.80;;;3.88;;
30505;SDS011;17292;51.600;4.994;2023-05-24T05:23:30;5.32;;;4.00;;
30505;SDS011;17292;51.600;4.994;2023-05-24T05:25:56;11.57;;;3.92;;
30505;SDS011;17292;51.600;4.994;2023-05-24T05:28:22;7.47;;;4.18;;
30505;SDS011;17292;51.600;4.994;2023-05-24T05:30:49;7.72;;;3.83;;
30505;SDS011;17292;51.600;4.994;2023-05-24T05:33:15;8.68;;;3.80;;
30505;SDS011;17292;51.600;4.994;2023-05-24T05:35:41;9.15;;;4.25;;
30505;SDS011;17292;51.600;4.994;2023-05-24T05:38:07;9.63;;;4.25;;
30505;SDS011;17292;51.600;4.994;2023-05-24T05:40:33;7.95;;;3.92;;
30505;SDS011;17292;51.600;4.994;2023-05-24T05:42:59;9.93;;;4.57;;
30505;SDS011;17292;51.600;4.994;2023-05-24T05:45:25;7.75;;;4.07;;
30505;SDS011;17292;51.600;4.994;2023-05-24T05:47:51;8.20;;;3.88;;
30505;SDS011;17292;51.600;4.994;2023-05-24T05:50:18;9.57;;;4.07;;
30505;SDS011;17292;51.600;4.994;2023-05-24T05:52:44;9.38;;;4.40;;
30505;SDS011;17292;51.600;4.994;2023-05-24T05:55:10;12.23;;;4.47;;
30505;SDS011;17292;51.600;4.994;2023-05-24T05:57:36;9.77;;;3.85;;
30505;SDS011;17292;51.600;4.994;2023-05-24T06:00:03;10.80;;;4.50;;
30505;SDS011;17292;51.600;4.994;2023-05-24T06:02:29;9.85;;;4.03;;
30505;SDS011;17292;51.600;4.994;2023-05-24T06:04:55;7.60;;;4.30;;
30505;SDS011;17292;51.600;4.994;2023-05-24T06:07:21;10.18;;;4.18;;
30505;SDS011;17292;51.600;4.994;2023-05-24T06:09:47;12.75;;;4.00;;
30505;SDS011;17292;51.600;4.994;2023-05-24T06:12:14;19.70;;;4.93;;
30505;SDS011;17292;51.600;4.994;2023-05-24T06:14:40;18.92;;;4.75;;
30505;SDS011;17292;51.600;4.994;2023-05-24T06:17:06;19.58;;;5.05;;
30505;SDS011;17292;51.600;4.994;2023-05-24T06:19:33;22.10;;;5.30;;
30505;SDS011;17292;51.600;4.994;2023-05-24T06:21:59;20.88;;;5.20;;
30505;SDS011;17292;51.600;4.994;2023-05-24T06:24:26;15.52;;;4.32;;
30505;SDS011;17292;51.600;4.994;2023-05-24T06:26:52;13.93;;;4.53;;
30505;SDS011;17292;51.600;4.994;2023-05-24T06:29:19;13.90;;;5.22;;
30505;SDS011;17292;51.600;4.994;2023-05-24T06:31:46;20.30;;;4.97;;
30505;SDS011;17292;51.600;4.994;2023-05-24T06:34:12;23.23;;;5.72;;
30505;SDS011;17292;51.600;4.994;2023-05-24T06:36:41;27.67;;;5.32;;
30505;SDS011;17292;51.600;4.994;2023-05-24T06:39:11;14.13;;;4.35;;
30505;SDS011;17292;51.600;4.994;2023-05-24T06:41:38;23.58;;;4.95;;
30505;SDS011;17292;51.600;4.994;2023-05-24T06:44:04;16.13;;;4.53;;
30505;SDS011;17292;51.600;4.994;2023-05-24T06:46:30;26.05;;;5.35;;
30505;SDS011;17292;51.600;4.994;2023-05-24T06:48:57;33.97;;;5.50;;
30505;SDS011;17292;51.600;4.994;2023-05-24T06:51:23;26.02;;;5.38;;
30505;SDS011;17292;51.600;4.994;2023-05-24T06:53:49;32.58;;;5.13;;
30505;SDS011;17292;51.600;4.994;2023-05-24T06:56:16;19.70;;;5.10;;
30505;SDS011;17292;51.600;4.994;2023-05-24T06:58:42;18.77;;;4.53;;
30505;SDS011;17292;51.600;4.994;2023-05-24T07:01:08;19.40;;;5.47;;
30505;SDS011;17292;51.600;4.994;2023-05-24T07:03:34;14.77;;;4.15;;
30505;SDS011;17292;51.600;4.994;2023-05-24T07:06:01;14.82;;;4.82;;
30505;SDS011;17292;51.600;4.994;2023-05-24T07:08:27;16.55;;;4.38;;
30505;SDS011;17292;51.600;4.994;2023-05-24T07:10:54;17.13;;;4.65;;
30505;SDS011;17292;51.600;4.994;2023-05-24T07:13:20;16.88;;;4.68;;
30505;SDS011;17292;51.600;4.994;2023-05-24T07:15:46;17.45;;;4.30;;
30505;SDS011;17292;51.600;4.994;2023-05-24T07:18:13;21.25;;;4.28;;
30505;SDS011;17292;51.600;4.994;2023-05-24T07:20:39;10.82;;;4.38;;
30505;SDS011;17292;51.600;4.994;2023-05-24T07:23:05;17.60;;;4.15;;
30505;SDS011;17292;51.600;4.994;2023-05-24T07:25:32;15.15;;;4.53;;
30505;SDS011;17292;51.600;4.994;2023-05-24T07:28:01;7.18;;;4.20;;
30505;SDS011;17292;51.600;4.994;2023-05-24T07:30:27;13.88;;;4.80;;
30505;SDS011;17292;51.600;4.994;2023-05-24T07:32:53;11.88;;;4.05;;
30505;SDS011;17292;51.600;4.994;2023-05-24T07:35:19;20.27;;;5.30;;
30505;SDS011;17292;51.600;4.994;2023-05-24T07:37:46;19.30;;;4.93;;
30505;SDS011;17292;51.600;4.994;2023-05-24T07:40:12;22.52;;;5.22;;
30505;SDS011;17292;51.600;4.994;2023-05-24T07:42:39;13.23;;;4.68;;
30505;SDS011;17292;51.600;4.994;2023-05-24T07:45:06;17.77;;;4.30;;
30505;SDS011;17292;51.600;4.994;2023-05-24T07:47:35;21.77;;;5.13;;
30505;SDS011;17292;51.600;4.994;2023-05-24T07:50:02;20.13;;;5.22;;
30505;SDS011;17292;51.600;4.994;2023-05-24T07:52:28;26.60;;;5.10;;
30505;SDS011;17292;51.600;4.994;2023-05-24T07:54:55;20.20;;;4.75;;
30505;SDS011;17292;51.600;4.994;2023-05-24T07:57:21;21.55;;;4.50;;
30505;SDS011;17292;51.600;4.994;2023-05-24T07:59:47;23.08;;;4.60;;
30505;SDS011;17292;51.600;4.994;2023-05-24T08:02:14;19.20;;;4.75;;
30505;SDS011;17292;51.600;4.994;2023-05-24T08:04:41;27.42;;;5.13;;
30505;SDS011;17292;51.600;4.994;2023-05-24T08:07:07;20.95;;;6.00;;
30505;SDS011;17292;51.600;4.994;2023-05-24T08:09:34;17.33;;;4.47;;
30505;SDS011;17292;51.600;4.994;2023-05-24T08:12:03;15.20;;;4.72;;
30505;SDS011;17292;51.600;4.994;2023-05-24T08:14:29;18.50;;;4.60;;
30505;SDS011;17292;51.600;4.994;2023-05-24T08:16:55;24.05;;;5.57;;
30505;SDS011;17292;51.600;4.994;2023-05-24T08:19:21;18.70;;;5.38;;
30505;SDS011;17292;51.600;4.994;2023-05-24T08:21:48;20.05;;;4.55;;
30505;SDS011;17292;51.600;4.994;2023-05-24T08:24:14;17.73;;;4.70;;
30505;SDS011;17292;51.600;4.994;2023-05-24T08:26:41;19.52;;;4.53;;
30505;SDS011;17292;51.600;4.994;2023-05-24T08:29:09;28.38;;;4.55;;
30505;SDS011;17292;51.600;4.994;2023-05-24T08:31:36;17.80;;;4.97;;
30505;SDS011;17292;51.600;4.994;2023-05-24T08:34:03;21.10;;;4.65;;
30505;SDS011;17292;51.600;4.994;2023-05-24T08:36:29;14.98;;;4.97;;
30505;SDS011;17292;51.600;4.994;2023-05-24T08:38:55;23.67;;;4.85;;
30505;SDS011;17292;51.600;4.994;2023-05-24T08:41:23;30.52;;;5.32;;
30505;SDS011;17292;51.600;4.994;2023-05-24T08:43:51;16.30;;;4.65;;
30505;SDS011;17292;51.600;4.994;2023-05-24T08:46:18;18.10;;;4.85;;
30505;SDS011;17292;51.600;4.994;2023-05-24T08:48:45;17.55;;;4.78;;
30505;SDS011;17292;51.600;4.994;2023-05-24T08:51:15;16.17;;;4.65;;
30505;SDS011;17292;51.600;4.994;2023-05-24T08:53:42;15.88;;;4.78;;
30505;SDS011;17292;51.600;4.994;2023-05-24T08:56:13;14.90;;;4.22;;
30505;SDS011;17292;51.600;4.994;2023-05-24T08:58:41;15.63;;;4.78;;
30505;SDS011;17292;51.600;4.994;2023-05-24T09:01:08;14.93;;;4.50;;
30505;SDS011;17292;51.600;4.994;2023-05-24T09:03:35;21.77;;;4.43;;
30505;SDS011;17292;51.600;4.994;2023-05-24T09:06:02;25.67;;;5.57;;
30505;SDS011;17292;51.600;4.994;2023-05-24T09:08:29;25.23;;;5.43;;
30505;SDS011;17292;51.600;4.994;2023-05-24T09:10:57;18.33;;;5.40;;
30505;SDS011;17292;51.600;4.994;2023-05-24T09:13:24;23.30;;;4.57;;
30505;SDS011;17292;51.600;4.994;2023-05-24T09:15:51;25.73;;;4.55;;
30505;SDS011;17292;51.600;4.994;2023-05-24T09:18:18;19.52;;;5.07;;
30505;SDS011;17292;51.600;4.994;2023-05-24T09:20:44;18.85;;;4.63;;
30505;SDS011;17292;51.600;4.994;2023-05-24T09:23:10;19.23;;;5.00;;
30505;SDS011;17292;51.600;4.994;2023-05-24T09:25:42;24.08;;;5.15;;
30505;SDS011;17292;51.600;4.994;2023-05-24T09:28:08;17.67;;;4.25;;
30505;SDS011;17292;51.600;4.994;2023-05-24T09:30:38;22.17;;;5.03;;
30505;SDS011;17292;51.600;4.994;2023-05-24T09:33:06;15.57;;;4.85;;
30505;SDS011;17292;51.600;4.994;2023-05-24T09:35:32;18.85;;;4.80;;
30505;SDS011;17292;51.600;4.994;2023-05-24T09:38:00;25.90;;;4.65;;
30505;SDS011;17292;51.600;4.994;2023-05-24T09:40:27;23.70;;;5.50;;
30505;SDS011;17292;51.600;4.994;2023-05-24T09:43:04;19.55;;;5.03;;
30505;SDS011;17292;51.600;4.994;2023-05-24T09:45:31;21.65;;;4.63;;
30505;SDS011;17292;51.600;4.994;2023-05-24T09:47:57;20.70;;;5.07;;
30505;SDS011;17292;51.600;4.994;2023-05-24T09:50:24;20.13;;;4.90;;
30505;SDS011;17292;51.600;4.994;2023-05-24T09:52:51;25.55;;;5.18;;
30505;SDS011;17292;51.600;4.994;2023-05-24T09:55:18;20.63;;;4.85;;
30505;SDS011;17292;51.600;4.994;2023-05-24T09:57:59;24.98;;;4.93;;
30505;SDS011;17292;51.600;4.994;2023-05-24T10:00:31;18.00;;;5.18;;
30505;SDS011;17292;51.600;4.994;2023-05-24T10:03:01;13.68;;;4.63;;
30505;SDS011;17292;51.600;4.994;2023-05-24T10:05:28;14.30;;;4.50;;
30505;SDS011;17292;51.600;4.994;2023-05-24T10:07:54;22.00;;;4.60;;
30505;SDS011;17292;51.600;4.994;2023-05-24T10:10:21;18.80;;;4.65;;
30505;SDS011;17292;51.600;4.994;2023-05-24T10:12:47;16.33;;;4.30;;
30505;SDS011;17292;51.600;4.994;2023-05-24T10:15:13;17.77;;;4.80;;
30505;SDS011;17292;51.600;4.994;2023-05-24T10:17:40;19.10;;;4.45;;
30505;SDS011;17292;51.600;4.994;2023-05-24T10:20:06;23.27;;;4.95;;
30505;SDS011;17292;51.600;4.994;2023-05-24T10:22:35;21.98;;;5.13;;
30505;SDS011;17292;51.600;4.994;2023-05-24T10:25:02;20.35;;;4.45;;
30505;SDS011;17292;51.600;4.994;2023-05-24T10:27:30;17.55;;;4.80;;
30505;SDS011;17292;51.600;4.994;2023-05-24T10:30:05;18.17;;;5.07;;
30505;SDS011;17292;51.600;4.994;2023-05-24T10:32:34;22.70;;;4.70;;
30505;SDS011;17292;51.600;4.994;2023-05-24T10:35:03;20.92;;;4.90;;
30505;SDS011;17292;51.600;4.994;2023-05-24T10:37:29;25.05;;;5.90;;
30505;SDS011;17292;51.600;4.994;2023-05-24T10:39:56;22.67;;;5.13;;
30505;SDS011;17292;51.600;4.994;2023-05-24T10:42:23;23.10;;;5.22;;
30505;SDS011;17292;51.600;4.994;2023-05-24T10:44:49;20.48;;;4.82;;
30505;SDS011;17292;51.600;4.994;2023-05-24T10:47:15;17.30;;;4.38;;
30505;SDS011;17292;51.600;4.994;2023-05-24T10:49:53;19.30;;;5.03;;
30505;SDS011;17292;51.600;4.994;2023-05-24T10:52:20;17.45;;;4.43;;
30505;SDS011;17292;51.600;4.994;2023-05-24T10:57:34;13.43;;;4.35;;
30505;SDS011;17292;51.600;4.994;2023-05-24T11:02:49;17.65;;;5.38;;
30505;SDS011;17292;51.600;4.994;2023-05-24T11:05:16;13.45;;;4.93;;
30505;SDS011;17292;51.600;4.994;2023-05-24T11:07:42;15.77;;;4.90;;
30505;SDS011;17292;51.600;4.994;2023-05-24T11:10:12;22.08;;;5.00;;
30505;SDS011;17292;51.600;4.994;2023-05-24T11:12:42;22.77;;;5.50;;
30505;SDS011;17292;51.600;4.994;2023-05-24T11:15:09;21.27;;;4.57;;
30505;SDS011;17292;51.600;4.994;2023-05-24T11:18:12;23.60;;;5.03;;
30505;SDS011;17292;51.600;4.994;2023-05-24T11:20:24;20.10;;;4.82;;
30505;SDS011;17292;51.600;4.994;2023-05-24T11:22:51;19.00;;;4.88;;
30505;SDS011;17292;51.600;4.994;2023-05-24T11:25:17;22.67;;;5.13;;
30505;SDS011;17292;51.600;4.994;2023-05-24T11:27:43;22.05;;;4.95;;
30505;SDS011;17292;51.600;4.994;2023-05-24T11:30:10;25.73;;;5.20;;
30505;SDS011;17292;51.600;4.994;2023-05-24T11:32:36;21.83;;;4.88;;
30505;SDS011;17292;51.600;4.994;2023-05-24T11:35:06;30.42;;;5.70;;
30505;SDS011;17292;51.600;4.994;2023-05-24T11:37:36;22.73;;;5.40;;
30505;SDS011;17292;51.600;4.994;2023-05-24T11:40:05;14.88;;;4.63;;
30505;SDS011;17292;51.600;4.994;2023-05-24T11:42:34;22.63;;;5.25;;
30505;SDS011;17292;51.600;4.994;2023-05-24T11:45:04;21.83;;;4.85;;
30505;SDS011;17292;51.600;4.994;2023-05-24T11:47:34;21.38;;;4.57;;
30505;SDS011;17292;51.600;4.994;2023-05-24T11:50:02;21.83;;;5.25;;
30505;SDS011;17292;51.600;4.994;2023-05-24T11:52:29;22.33;;;5.47;;
30505;SDS011;17292;51.600;4.994;2023-05-24T11:54:55;19.73;;;4.55;;
30505;SDS011;17292;51.600;4.994;2023-05-24T11:57:36;16.45;;;5.15;;
30505;SDS011;17292;51.600;4.994;2023-05-24T12:00:04;20.10;;;5.13;;
30505;SDS011;17292;51.600;4.994;2023-05-24T12:02:35;19.10;;;4.97;;
30505;SDS011;17292;51.600;4.994;2023-05-24T12:05:05;22.00;;;5.13;;
30505;SDS011;17292;51.600;4.994;2023-05-24T12:07:33;26.42;;;5.75;;
30505;SDS011;17292;51.600;4.994;2023-05-24T12:10:02;16.23;;;4.82;;
30505;SDS011;17292;51.600;4.994;2023-05-24T12:12:28;18.55;;;5.45;;
30505;SDS011;17292;51.600;4.994;2023-05-24T12:14:55;18.17;;;5.22;;
30505;SDS011;17292;51.600;4.994;2023-05-24T12:17:21;20.20;;;5.95;;
30505;SDS011;17292;51.600;4.994;2023-05-24T12:19:48;23.42;;;5.30;;
30505;SDS011;17292;51.600;4.994;2023-05-24T12:22:17;17.77;;;4.88;;
30505;SDS011;17292;51.600;4.994;2023-05-24T12:24:43;25.40;;;5.22;;
30505;SDS011;17292;51.600;4.994;2023-05-24T12:27:14;19.15;;;4.97;;
30505;SDS011;17292;51.600;4.994;2023-05-24T12:29:40;21.90;;;5.32;;
30505;SDS011;17292;51.600;4.994;2023-05-24T12:32:08;19.40;;;5.25;;
30505;SDS011;17292;51.600;4.994;2023-05-24T12:34:41;26.05;;;5.28;;
30505;SDS011;17292;51.600;4.994;2023-05-24T12:37:08;21.45;;;5.85;;
30505;SDS011;17292;51.600;4.994;2023-05-24T12:39:35;28.38;;;7.00;;
30505;SDS011;17292;51.600;4.994;2023-05-24T12:42:02;30.63;;;7.82;;
30505;SDS011;17292;51.600;4.994;2023-05-24T12:44:37;30.88;;;7.47;;
30505;SDS011;17292;51.600;4.994;2023-05-24T12:47:05;23.40;;;6.93;;
30505;SDS011;17292;51.600;4.994;2023-05-24T12:49:32;34.78;;;7.07;;
30505;SDS011;17292;51.600;4.994;2023-05-24T12:51:58;27.70;;;6.55;;
30505;SDS011;17292;51.600;4.994;2023-05-24T12:54:26;22.23;;;5.57;;
30505;SDS011;17292;51.600;4.994;2023-05-24T12:56:53;24.63;;;5.72;;
30505;SDS011;17292;51.600;4.994;2023-05-24T12:59:20;26.90;;;6.28;;
30505;SDS011;17292;51.600;4.994;2023-05-24T13:01:46;27.90;;;5.57;;
30505;SDS011;17292;51.600;4.994;2023-05-24T13:04:16;25.13;;;6.15;;
30505;SDS011;17292;51.600;4.994;2023-05-24T13:06:42;35.10;;;6.68;;
30505;SDS011;17292;51.600;4.994;2023-05-24T13:09:09;25.02;;;6.43;;
30505;SDS011;17292;51.600;4.994;2023-05-24T13:11:35;26.77;;;5.70;;
30505;SDS011;17292;51.600;4.994;2023-05-24T13:14:02;31.13;;;6.55;;
30505;SDS011;17292;51.600;4.994;2023-05-24T13:16:28;32.50;;;5.50;;
30505;SDS011;17292;51.600;4.994;2023-05-24T13:18:54;22.27;;;6.13;;
30505;SDS011;17292;51.600;4.994;2023-05-24T13:21:20;21.67;;;5.18;;
30505;SDS011;17292;51.600;4.994;2023-05-24T13:23:47;31.42;;;5.63;;
30505;SDS011;17292;51.600;4.994;2023-05-24T13:26:13;23.05;;;5.18;;
30505;SDS011;17292;51.600;4.994;2023-05-24T13:28:39;21.05;;;5.47;;
30505;SDS011;17292;51.600;4.994;2023-05-24T13:31:06;22.20;;;5.15;;
30505;SDS011;17292;51.600;4.994;2023-05-24T13:33:33;18.33;;;4.82;;
30505;SDS011;17292;51.600;4.994;2023-05-24T13:35:59;23.55;;;6.60;;
30505;SDS011;17292;51.600;4.994;2023-05-24T13:38:26;23.65;;;5.15;;
30505;SDS011;17292;51.600;4.994;2023-05-24T13:40:52;30.75;;;7.13;;
30505;SDS011;17292;51.600;4.994;2023-05-24T13:43:19;31.60;;;6.10;;
30505;SDS011;17292;51.600;4.994;2023-05-24T13:45:45;25.45;;;5.38;;
30505;SDS011;17292;51.600;4.994;2023-05-24T13:48:11;24.35;;;5.50;;
30505;SDS011;17292;51.600;4.994;2023-05-24T13:50:38;26.27;;;5.65;;
30505;SDS011;17292;51.600;4.994;2023-05-24T13:53:04;24.10;;;5.43;;
30505;SDS011;17292;51.600;4.994;2023-05-24T13:55:32;20.65;;;5.25;;
30505;SDS011;17292;51.600;4.994;2023-05-24T13:57:59;20.67;;;5.65;;
30505;SDS011;17292;51.600;4.994;2023-05-24T14:00:31;22.33;;;5.30;;
30505;SDS011;17292;51.600;4.994;2023-05-24T14:02:59;18.58;;;5.43;;
30505;SDS011;17292;51.600;4.994;2023-05-24T14:05:26;26.83;;;5.28;;
30505;SDS011;17292;51.600;4.994;2023-05-24T14:07:55;24.92;;;5.47;;
30505;SDS011;17292;51.600;4.994;2023-05-24T14:10:24;19.05;;;5.30;;
30505;SDS011;17292;51.600;4.994;2023-05-24T14:12:50;24.13;;;5.30;;
30505;SDS011;17292;51.600;4.994;2023-05-24T14:15:17;18.63;;;4.95;;
30505;SDS011;17292;51.600;4.994;2023-05-24T14:17:43;16.45;;;4.78;;
30505;SDS011;17292;51.600;4.994;2023-05-24T14:20:09;18.42;;;4.78;;
30505;SDS011;17292;51.600;4.994;2023-05-24T14:22:36;16.85;;;5.15;;
30505;SDS011;17292;51.600;4.994;2023-05-24T14:25:02;18.65;;;5.30;;
30505;SDS011;17292;51.600;4.994;2023-05-24T14:27:28;29.73;;;5.47;;
30505;SDS011;17292;51.600;4.994;2023-05-24T14:29:55;25.58;;;5.57;;
30505;SDS011;17292;51.600;4.994;2023-05-24T14:32:21;16.33;;;5.40;;
30505;SDS011;17292;51.600;4.994;2023-05-24T14:34:47;17.45;;;5.13;;
30505;SDS011;17292;51.600;4.994;2023-05-24T14:37:13;16.00;;;4.88;;
30505;SDS011;17292;51.600;4.994;2023-05-24T14:39:42;16.92;;;4.70;;
30505;SDS011;17292;51.600;4.994;2023-05-24T14:42:08;17.95;;;5.10;;
30505;SDS011;17292;51.600;4.994;2023-05-24T14:44:34;13.98;;;5.20;;
30505;SDS011;17292;51.600;4.994;2023-05-24T14:47:00;17.48;;;4.78;;
30505;SDS011;17292;51.600;4.994;2023-05-24T14:49:27;16.92;;;4.93;;
30505;SDS011;17292;51.600;4.994;2023-05-24T14:51:53;15.32;;;4.60;;
30505;SDS011;17292;51.600;4.994;2023-05-24T14:54:19;19.38;;;5.03;;
30505;SDS011;17292;51.600;4.994;2023-05-24T14:56:45;18.15;;;5.45;;
30505;SDS011;17292;51.600;4.994;2023-05-24T14:59:12;14.20;;;4.65;;